createdAt,value
2019-04-06T00:00:35.989Z,0.00
2019-04-06T00:01:36.001Z,0.00
2019-04-06T00:02:36.109Z,0.00
2019-04-06T00:03:36.014Z,0.00
2019-04-06T00:04:35.966Z,0.00
2019-04-06T00:05:35.937Z,0.00
2019-04-06T00:06:35.957Z,0.00
2019-04-06T00:07:35.931Z,0.00
2019-04-06T00:08:35.911Z,0.00
2019-04-06T00:09:35.894Z,0.00
2019-04-06T00:10:35.883Z,0.00
2019-04-06T00:11:35.873Z,0.00
2019-04-06T00:12:35.880Z,0.00
2019-04-06T00:13:36.087Z,0.00
2019-04-06T00:14:35.862Z,0.00
2019-04-06T00:15:35.890Z,0.00
2019-04-06T00:16:35.858Z,0.00
2019-04-06T00:17:35.840Z,0.00
2019-04-06T00:18:35.840Z,0.00
2019-04-06T00:19:35.843Z,0.00
2019-04-06T00:20:35.826Z,0.00
2019-04-06T00:21:35.804Z,0.00
2019-04-06T00:22:35.761Z,0.00
2019-04-06T00:23:35.756Z,0.00
2019-04-06T00:24:35.749Z,0.00
2019-04-06T00:25:43.732Z,0.00
2019-04-06T00:26:36.716Z,0.00
2019-04-06T00:27:35.718Z,0.00
2019-04-06T00:28:35.717Z,0.00
2019-04-06T00:29:35.783Z,0.00
2019-04-06T00:30:35.681Z,0.00
2019-04-06T00:31:35.683Z,0.00
2019-04-06T00:32:35.657Z,0.00
2019-04-06T00:33:35.668Z,0.00
2019-04-06T00:34:35.667Z,0.00
2019-04-06T00:35:35.629Z,0.00
2019-04-06T00:36:35.631Z,0.00
2019-04-06T00:37:35.599Z,0.00
2019-04-06T00:38:35.584Z,0.00
2019-04-06T00:39:35.581Z,0.00
2019-04-06T00:40:35.595Z,0.00
2019-04-06T00:41:35.559Z,0.00
2019-04-06T00:42:35.550Z,0.00
2019-04-06T00:43:35.534Z,0.00
2019-04-06T00:44:35.523Z,0.00
2019-04-06T00:45:35.536Z,0.00
2019-04-06T00:46:35.505Z,0.00
2019-04-06T00:47:35.496Z,0.00
2019-04-06T00:48:35.484Z,0.00
2019-04-06T00:49:35.469Z,0.00
2019-04-06T00:50:35.490Z,0.00
2019-04-06T00:51:35.458Z,0.00
2019-04-06T00:52:35.436Z,0.00
2019-04-06T00:53:35.438Z,0.00
2019-04-06T00:54:35.424Z,0.00
2019-04-06T00:55:35.414Z,0.00
2019-04-06T00:56:35.419Z,0.00
2019-04-06T00:57:35.383Z,0.00
2019-04-06T00:58:35.417Z,0.00
2019-04-06T00:59:35.383Z,0.00
2019-04-06T01:00:35.380Z,0.00
2019-04-06T01:01:35.377Z,0.00
2019-04-06T01:02:35.332Z,0.00
2019-04-06T01:03:35.321Z,0.00
2019-04-06T01:04:35.310Z,0.00
2019-04-06T01:05:35.306Z,0.00
2019-04-06T01:06:35.299Z,0.00
2019-04-06T01:07:35.308Z,0.00
2019-04-06T01:08:35.278Z,0.00
2019-04-06T01:09:35.254Z,0.00
2019-04-06T01:10:35.245Z,0.00
2019-04-06T01:11:35.243Z,0.00
2019-04-06T01:12:35.260Z,0.00
2019-04-06T01:13:35.320Z,0.00
2019-04-06T01:14:35.219Z,0.00
2019-04-06T01:15:35.199Z,0.00
2019-04-06T01:16:35.237Z,0.00
2019-04-06T01:17:35.179Z,0.00
2019-04-06T01:18:35.203Z,0.00
2019-04-06T01:19:35.158Z,0.00
2019-04-06T01:20:35.150Z,0.00
2019-04-06T01:21:35.134Z,0.00
2019-04-06T01:22:35.119Z,0.00
2019-04-06T01:23:35.114Z,0.00
2019-04-06T01:24:35.122Z,0.00
2019-04-06T01:25:35.173Z,0.00
2019-04-06T01:26:35.106Z,0.00
2019-04-06T01:27:35.079Z,0.00
2019-04-06T01:28:35.081Z,0.00
2019-04-06T01:29:35.046Z,0.00
2019-04-06T01:30:35.038Z,0.00
2019-04-06T01:31:35.144Z,0.00
2019-04-06T01:32:35.041Z,0.00
2019-04-06T01:33:35.001Z,0.00
2019-04-06T01:34:34.994Z,0.00
2019-04-06T01:35:35.097Z,0.00
2019-04-06T01:36:34.972Z,0.00
2019-04-06T01:37:34.987Z,0.00
2019-04-06T01:38:34.981Z,0.00
2019-04-06T01:39:34.955Z,0.00
2019-04-06T01:40:34.946Z,0.00
2019-04-06T01:41:34.922Z,0.00
2019-04-06T01:42:34.937Z,0.00
2019-04-06T01:43:34.895Z,0.00
2019-04-06T01:44:34.885Z,0.00
2019-04-06T01:45:34.887Z,0.00
2019-04-06T01:46:34.878Z,0.00
2019-04-06T01:47:34.855Z,0.00
2019-04-06T01:48:34.862Z,0.00
2019-04-06T01:49:34.840Z,0.00
2019-04-06T01:50:34.889Z,0.00
2019-04-06T01:51:34.827Z,0.00
2019-04-06T01:52:34.808Z,0.00
2019-04-06T01:53:34.809Z,0.00
2019-04-06T01:54:34.780Z,0.00
2019-04-06T01:55:34.768Z,0.00
2019-04-06T01:56:34.774Z,0.00
2019-04-06T01:57:34.755Z,0.00
2019-04-06T01:58:34.767Z,0.00
2019-04-06T01:59:34.731Z,0.00
2019-04-06T02:00:34.758Z,0.00
2019-04-06T02:01:34.706Z,0.00
2019-04-06T02:02:34.848Z,0.00
2019-04-06T02:03:34.694Z,0.00
2019-04-06T02:04:34.683Z,0.00
2019-04-06T02:05:34.697Z,0.00
2019-04-06T02:06:34.654Z,0.00
2019-04-06T02:07:34.668Z,0.00
2019-04-06T02:08:34.633Z,0.00
2019-04-06T02:09:34.644Z,0.00
2019-04-06T02:10:34.618Z,0.00
2019-04-06T02:11:34.623Z,0.00
2019-04-06T02:12:34.592Z,0.00
2019-04-06T02:13:34.597Z,0.00
2019-04-06T02:14:34.580Z,0.00
2019-04-06T02:15:34.603Z,0.00
2019-04-06T02:16:34.549Z,0.00
2019-04-06T02:17:34.560Z,0.00
2019-04-06T02:18:34.533Z,0.00
2019-04-06T02:19:34.536Z,0.00
2019-04-06T02:20:34.506Z,0.00
2019-04-06T02:21:34.494Z,0.00
2019-04-06T02:22:34.484Z,0.00
2019-04-06T02:23:34.479Z,0.00
2019-04-06T02:24:34.463Z,0.00
2019-04-06T02:25:34.464Z,0.00
2019-04-06T02:26:34.435Z,0.00
2019-04-06T02:27:34.424Z,0.00
2019-04-06T02:28:34.423Z,0.00
2019-04-06T02:29:34.412Z,0.00
2019-04-06T02:30:34.586Z,0.00
2019-04-06T02:31:34.391Z,0.00
2019-04-06T02:32:34.385Z,0.00
2019-04-06T02:33:34.386Z,0.00
2019-04-06T02:34:34.352Z,0.00
2019-04-06T02:35:34.353Z,0.00
2019-04-06T02:36:34.358Z,0.00
2019-04-06T02:37:34.372Z,0.00
2019-04-06T02:38:34.312Z,0.00
2019-04-06T02:39:34.301Z,0.00
2019-04-06T02:40:34.319Z,0.00
2019-04-06T02:41:34.434Z,0.00
2019-04-06T02:42:34.276Z,0.00
2019-04-06T02:43:34.265Z,0.00
2019-04-06T02:44:34.256Z,0.00
2019-04-06T02:45:34.235Z,0.00
2019-04-06T02:46:34.298Z,0.00
2019-04-06T02:47:34.211Z,0.00
2019-04-06T02:48:34.207Z,0.00
2019-04-06T02:49:34.200Z,0.00
2019-04-06T02:50:34.229Z,0.00
2019-04-06T02:51:34.197Z,0.00
2019-04-06T02:52:34.178Z,0.00
2019-04-06T02:53:34.266Z,0.00
2019-04-06T02:54:34.369Z,0.00
2019-04-06T02:55:34.132Z,0.00
2019-04-06T02:56:45.599Z,0.00
2019-04-06T02:57:35.109Z,0.00
2019-04-06T02:58:34.094Z,0.00
2019-04-06T02:59:34.083Z,0.00
2019-04-06T03:00:34.073Z,0.00
2019-04-06T03:01:34.088Z,0.00
2019-04-06T03:02:34.094Z,0.00
2019-04-06T03:03:34.046Z,0.00
2019-04-06T03:04:34.034Z,0.00
2019-04-06T03:05:34.043Z,0.00
2019-04-06T03:06:34.011Z,0.00
2019-04-06T03:07:34.003Z,0.00
2019-04-06T03:08:34.016Z,0.00
2019-04-06T03:09:33.987Z,0.00
2019-04-06T03:10:33.975Z,0.00
2019-04-06T03:11:33.957Z,0.00
2019-04-06T03:12:33.944Z,0.00
2019-04-06T03:13:33.965Z,0.00
2019-04-06T03:14:33.934Z,0.00
2019-04-06T03:15:33.925Z,0.00
2019-04-06T03:16:33.912Z,0.00
2019-04-06T03:17:33.891Z,0.00
2019-04-06T03:18:33.883Z,0.00
2019-04-06T03:19:33.901Z,0.00
2019-04-06T03:20:33.945Z,0.00
2019-04-06T03:21:33.851Z,0.00
2019-04-06T03:22:33.845Z,0.00
2019-04-06T03:23:33.826Z,0.00
2019-04-06T03:24:33.818Z,0.00
2019-04-06T03:25:33.853Z,0.00
2019-04-06T03:26:33.824Z,0.00
2019-04-06T03:27:33.792Z,0.00
2019-04-06T03:28:33.786Z,0.00
2019-04-06T03:29:33.769Z,0.00
2019-04-06T03:30:33.765Z,0.00
2019-04-06T03:31:33.939Z,0.00
2019-04-06T03:32:33.729Z,0.00
2019-04-06T03:33:33.725Z,0.00
2019-04-06T03:34:33.761Z,0.00
2019-04-06T03:35:33.719Z,0.00
2019-04-06T03:36:33.715Z,0.00
2019-04-06T03:37:33.758Z,0.00
2019-04-06T03:38:33.781Z,0.00
2019-04-06T03:39:33.665Z,0.00
2019-04-06T03:40:33.649Z,0.00
2019-04-06T03:41:33.637Z,0.00
2019-04-06T03:42:33.650Z,0.00
2019-04-06T03:43:33.612Z,0.00
2019-04-06T03:44:33.609Z,0.00
2019-04-06T03:45:33.658Z,0.00
2019-04-06T03:46:33.708Z,0.00
2019-04-06T03:47:33.577Z,0.00
2019-04-06T03:48:33.599Z,0.00
2019-04-06T03:49:33.537Z,0.00
2019-04-06T03:50:33.534Z,0.00
2019-04-06T03:51:33.518Z,0.00
2019-04-06T03:52:33.537Z,0.00
2019-04-06T03:53:33.501Z,0.00
2019-04-06T03:54:33.511Z,0.00
2019-04-06T03:55:33.558Z,0.00
2019-04-06T03:56:33.462Z,4.00
2019-04-06T03:57:33.462Z,4.00
2019-04-06T03:58:33.523Z,4.00
2019-04-06T03:59:33.466Z,0.00
2019-04-06T04:00:33.425Z,4.00
2019-04-06T04:01:33.419Z,4.00
2019-04-06T04:02:33.416Z,4.00
2019-04-06T04:03:33.386Z,4.00
2019-04-06T04:04:33.376Z,8.00
2019-04-06T04:05:33.395Z,8.00
2019-04-06T04:06:33.489Z,8.00
2019-04-06T04:07:33.371Z,12.00
2019-04-06T04:08:33.340Z,12.00
2019-04-06T04:09:33.322Z,12.00
2019-04-06T04:10:33.526Z,20.00
2019-04-06T04:11:33.319Z,20.00
2019-04-06T04:12:33.319Z,24.00
2019-04-06T04:13:33.282Z,24.00
2019-04-06T04:14:33.273Z,32.00
2019-04-06T04:15:33.652Z,36.00
2019-04-06T04:16:33.277Z,40.00
2019-04-06T04:17:33.261Z,48.00
2019-04-06T04:18:33.339Z,56.00
2019-04-06T04:19:33.265Z,64.00
2019-04-06T04:20:33.212Z,72.00
2019-04-06T04:21:33.198Z,84.00
2019-04-06T04:22:34.677Z,92.00
2019-04-06T04:23:33.244Z,104.00
2019-04-06T04:24:33.165Z,116.00
2019-04-06T04:25:33.173Z,132.00
2019-04-06T04:26:33.155Z,148.00
2019-04-06T04:27:33.197Z,164.00
2019-04-06T04:28:33.129Z,180.00
2019-04-06T04:29:33.123Z,204.00
2019-04-06T04:30:34.555Z,224.00
2019-04-06T04:31:33.114Z,248.00
2019-04-06T04:32:33.203Z,272.00
2019-04-06T04:33:33.103Z,300.00
2019-04-06T04:34:33.056Z,336.00
2019-04-06T04:35:33.062Z,372.00
2019-04-06T04:36:33.058Z,408.00
2019-04-06T04:37:33.196Z,448.00
2019-04-06T04:38:33.026Z,496.00
2019-04-06T04:39:33.043Z,544.00
2019-04-06T04:40:33.271Z,600.00
2019-04-06T04:41:32.986Z,656.00
2019-04-06T04:42:32.973Z,712.00
2019-04-06T04:43:32.964Z,772.00
2019-04-06T04:44:32.954Z,828.00
2019-04-06T04:45:32.956Z,892.00
2019-04-06T04:46:33.050Z,952.00
2019-04-06T04:47:32.918Z,1012.00
2019-04-06T04:48:32.913Z,1068.00
2019-04-06T04:49:32.905Z,1120.00
2019-04-06T04:50:32.912Z,1168.00
2019-04-06T04:51:32.896Z,1212.00
2019-04-06T04:52:32.997Z,1256.00
2019-04-06T04:53:32.896Z,1292.00
2019-04-06T04:54:32.858Z,1328.00
2019-04-06T04:55:32.842Z,1352.00
2019-04-06T04:56:32.998Z,1380.00
2019-04-06T04:57:40.035Z,1412.00
2019-04-06T04:58:33.808Z,1456.00
2019-04-06T04:59:32.792Z,1508.00
2019-04-06T05:00:32.777Z,1568.00
2019-04-06T05:01:32.772Z,1640.00
2019-04-06T05:02:32.789Z,1716.00
2019-04-06T05:03:32.756Z,1800.00
2019-04-06T05:04:32.848Z,1888.00
2019-04-06T05:05:32.753Z,1992.00
2019-04-06T05:06:32.711Z,2100.00
2019-04-06T05:07:32.711Z,2224.00
2019-04-06T05:08:32.812Z,2348.00
2019-04-06T05:09:32.686Z,2468.00
2019-04-06T05:10:32.726Z,2572.00
2019-04-06T05:11:32.686Z,2656.00
2019-04-06T05:12:32.658Z,2744.00
2019-04-06T05:13:32.637Z,2824.00
2019-04-06T05:14:32.655Z,2912.00
2019-04-06T05:15:32.624Z,3028.00
2019-04-06T05:16:32.609Z,3168.00
2019-04-06T05:17:32.713Z,3308.00
2019-04-06T05:18:32.586Z,3448.00
2019-04-06T05:19:32.576Z,3588.00
2019-04-06T05:20:32.586Z,3736.00
2019-04-06T05:21:32.559Z,3888.00
2019-04-06T05:22:32.568Z,4036.00
2019-04-06T05:23:32.535Z,4168.00
2019-04-06T05:24:32.546Z,4316.00
2019-04-06T05:25:32.552Z,4476.00
2019-04-06T05:26:37.798Z,4668.00
2019-04-06T05:27:33.512Z,4884.00
2019-04-06T05:28:32.477Z,5108.00
2019-04-06T05:29:33.343Z,5340.00
2019-04-06T05:30:32.465Z,5556.00
2019-04-06T05:31:32.447Z,5740.00
2019-04-06T05:32:32.435Z,5992.00
2019-04-06T05:33:32.466Z,6312.00
2019-04-06T05:34:32.418Z,6488.00
2019-04-06T05:35:32.427Z,6632.00
2019-04-06T05:36:32.399Z,6796.00
2019-04-06T05:37:32.387Z,6960.00
2019-04-06T05:38:32.369Z,7232.00
2019-04-06T05:39:32.357Z,7356.00
2019-04-06T05:40:32.367Z,7576.00
2019-04-06T05:41:32.343Z,7824.00
2019-04-06T05:42:32.376Z,8024.00
2019-04-06T05:43:32.332Z,8120.00
2019-04-06T05:44:32.313Z,8172.00
2019-04-06T05:45:32.640Z,8300.00
2019-04-06T05:46:32.287Z,8428.00
2019-04-06T05:47:32.445Z,8656.00
2019-04-06T05:48:32.271Z,8824.00
2019-04-06T05:49:32.266Z,8988.00
2019-04-06T05:50:32.241Z,9184.00
2019-04-06T05:51:32.257Z,9456.00
2019-04-06T05:52:32.221Z,9708.00
2019-04-06T05:53:32.249Z,9980.00
2019-04-06T05:54:32.217Z,10340.00
2019-04-06T05:55:32.195Z,10692.00
2019-04-06T05:56:32.209Z,11128.00
2019-04-06T05:57:32.826Z,11408.00
2019-04-06T05:58:32.176Z,11388.00
2019-04-06T05:59:32.146Z,11788.00
2019-04-06T06:00:32.129Z,12244.00
2019-04-06T06:01:32.233Z,12364.00
2019-04-06T06:02:32.372Z,12752.00
2019-04-06T06:03:32.101Z,12952.00
2019-04-06T06:04:32.096Z,13100.00
2019-04-06T06:05:32.090Z,13564.00
2019-04-06T06:06:32.074Z,14012.00
2019-04-06T06:07:32.099Z,14592.00
2019-04-06T06:08:32.105Z,14784.00
2019-04-06T06:09:32.039Z,14816.00
2019-04-06T06:10:32.045Z,14944.00
2019-04-06T06:11:32.014Z,14976.00
2019-04-06T06:12:32.020Z,15168.00
2019-04-06T06:13:31.995Z,15360.00
2019-04-06T06:14:32.033Z,15264.00
2019-04-06T06:15:31.980Z,15520.00
2019-04-06T06:16:31.966Z,16064.00
2019-04-06T06:17:32.041Z,16192.00
2019-04-06T06:18:31.943Z,16320.00
2019-04-06T06:19:31.954Z,16736.00
2019-04-06T06:20:31.923Z,16960.00
2019-04-06T06:21:32.034Z,17376.00
2019-04-06T06:22:31.897Z,17504.00
2019-04-06T06:23:31.882Z,17632.00
2019-04-06T06:24:34.608Z,18208.00
2019-04-06T06:25:31.881Z,18048.00
2019-04-06T06:26:31.863Z,18464.00
2019-04-06T06:27:31.849Z,19040.00
2019-04-06T06:28:31.838Z,19040.00
2019-04-06T06:29:31.850Z,19328.00
2019-04-06T06:30:31.918Z,20000.00
2019-04-06T06:31:31.800Z,20672.00
2019-04-06T06:32:31.793Z,20736.00
2019-04-06T06:33:31.796Z,20800.00
2019-04-06T06:34:31.778Z,21120.00
2019-04-06T06:35:31.776Z,21408.00
2019-04-06T06:36:31.747Z,21792.00
2019-04-06T06:37:31.744Z,21792.00
2019-04-06T06:38:31.730Z,21760.00
2019-04-06T06:39:31.721Z,22304.00
2019-04-06T06:40:31.741Z,23008.00
2019-04-06T06:41:31.703Z,23424.00
2019-04-06T06:42:31.684Z,23680.00
2019-04-06T06:43:31.675Z,23840.00
2019-04-06T06:44:31.667Z,23456.00
2019-04-06T06:45:31.664Z,19840.00
2019-04-06T06:46:31.691Z,15492.00
2019-04-06T06:47:31.637Z,21152.00
2019-04-06T06:48:31.628Z,24384.00
2019-04-06T06:49:31.613Z,19872.00
2019-04-06T06:50:31.605Z,18080.00
2019-04-06T06:51:31.676Z,18208.00
2019-04-06T06:52:31.582Z,18560.00
2019-04-06T06:53:31.570Z,28224.00
2019-04-06T06:54:31.553Z,22784.00
2019-04-06T06:55:31.565Z,18112.00
2019-04-06T06:56:31.555Z,18816.00
2019-04-06T06:57:31.762Z,25056.00
2019-04-06T06:58:31.521Z,30592.00
2019-04-06T06:59:31.535Z,32128.00
2019-04-06T07:00:31.684Z,32864.00
2019-04-06T07:01:31.499Z,31968.00
2019-04-06T07:02:31.472Z,15696.00
2019-04-06T07:03:31.463Z,26848.00
2019-04-06T07:04:31.448Z,21856.00
2019-04-06T07:05:31.460Z,14944.00
2019-04-06T07:06:31.454Z,14372.00
2019-04-06T07:07:31.451Z,14300.00
2019-04-06T07:08:31.510Z,15124.00
2019-04-06T07:09:31.414Z,31456.00
2019-04-06T07:10:31.388Z,36864.00
2019-04-06T07:11:31.383Z,36192.00
2019-04-06T07:12:31.409Z,36480.00
2019-04-06T07:13:31.686Z,37504.00
2019-04-06T07:14:31.347Z,38592.00
2019-04-06T07:15:31.336Z,38304.00
2019-04-06T07:16:31.328Z,38144.00
2019-04-06T07:17:31.333Z,39424.00
2019-04-06T07:18:31.308Z,39104.00
2019-04-06T07:19:31.313Z,38336.00
2019-04-06T07:20:31.528Z,39584.00
2019-04-06T07:21:31.330Z,34496.00
2019-04-06T07:22:31.260Z,41664.00
2019-04-06T07:23:31.250Z,40992.00
2019-04-06T07:24:31.258Z,32416.00
2019-04-06T07:25:31.263Z,39520.00
2019-04-06T07:26:31.301Z,42336.00
2019-04-06T07:27:31.389Z,44064.00
2019-04-06T07:28:37.549Z,45504.00
2019-04-06T07:29:32.278Z,46208.00
2019-04-06T07:30:31.175Z,47008.00
2019-04-06T07:31:31.162Z,47904.00
2019-04-06T07:32:31.379Z,47392.00
2019-04-06T07:33:31.134Z,46784.00
2019-04-06T07:34:31.130Z,48160.00
2019-04-06T07:35:31.145Z,50240.00
2019-04-06T07:36:31.103Z,51040.00
2019-04-06T07:37:31.131Z,51744.00
2019-04-06T07:38:31.090Z,51456.00
2019-04-06T07:39:31.263Z,50688.00
2019-04-06T07:40:31.093Z,50272.00
2019-04-06T07:41:31.055Z,49952.00
2019-04-06T07:42:31.047Z,49856.00
2019-04-06T07:43:31.036Z,50080.00
2019-04-06T07:44:31.031Z,50560.00
2019-04-06T07:45:31.019Z,51296.00
2019-04-06T07:46:31.022Z,52960.00
2019-04-06T07:47:30.983Z,55296.00
2019-04-06T07:48:31.049Z,55424.00
2019-04-06T07:49:30.968Z,54176.00
2019-04-06T07:50:31.613Z,55264.00
2019-04-06T07:51:30.966Z,55584.00
2019-04-06T07:52:31.016Z,55424.00
2019-04-06T07:53:30.979Z,56256.00
2019-04-06T07:54:30.912Z,55840.00
2019-04-06T07:55:30.908Z,54752.00
2019-04-06T07:56:31.755Z,56096.00
2019-04-06T07:57:30.954Z,58368.00
2019-04-06T07:58:31.321Z,58976.00
2019-04-06T07:59:30.875Z,57120.00
2019-04-06T08:00:30.857Z,54944.00
2019-04-06T08:01:30.852Z,56864.00
2019-04-06T08:02:30.900Z,59488.00
2019-04-06T08:03:30.938Z,60224.00
2019-04-06T08:04:30.873Z,60064.00
2019-04-06T08:05:30.799Z,60640.00
2019-04-06T08:06:30.788Z,60800.00
2019-04-06T08:07:30.782Z,61440.00
2019-04-06T08:08:30.789Z,61760.00
2019-04-06T08:09:30.772Z,62464.00
2019-04-06T08:10:30.755Z,62944.00
2019-04-06T08:11:30.752Z,63200.00
2019-04-06T08:12:30.732Z,63328.00
2019-04-06T08:13:30.745Z,63744.00
2019-04-06T08:14:30.708Z,64192.00
2019-04-06T08:15:30.954Z,63712.00
2019-04-06T08:16:30.687Z,62592.00
2019-04-06T08:17:30.718Z,61920.00
2019-04-06T08:18:30.686Z,61920.00
2019-04-06T08:19:30.773Z,63008.00
2019-04-06T08:20:30.639Z,63168.00
2019-04-06T08:21:30.634Z,63680.00
2019-04-06T08:22:30.622Z,63552.00
2019-04-06T08:23:30.727Z,64768.00
2019-04-06T08:24:30.624Z,65984.00
2019-04-06T08:25:30.587Z,64896.00
2019-04-06T08:26:30.694Z,64640.00
2019-04-06T08:27:30.573Z,65472.00
2019-04-06T08:28:30.601Z,65184.00
2019-04-06T08:29:30.544Z,64608.00
2019-04-06T08:30:30.725Z,64448.00
2019-04-06T08:31:30.709Z,64832.00
2019-04-06T08:32:30.520Z,64224.00
2019-04-06T08:33:30.707Z,65280.00
2019-04-06T08:34:30.518Z,66016.00
2019-04-06T08:35:31.490Z,66240.00
2019-04-06T08:36:30.501Z,68160.00
2019-04-06T08:37:30.469Z,71552.00
2019-04-06T08:38:30.458Z,71264.00
2019-04-06T08:39:30.466Z,70272.00
2019-04-06T08:40:30.436Z,71520.00
2019-04-06T08:41:30.755Z,70688.00
2019-04-06T08:42:30.422Z,68288.00
2019-04-06T08:43:31.400Z,68704.00
2019-04-06T08:44:30.392Z,72000.00
2019-04-06T08:45:30.409Z,73600.00
2019-04-06T08:46:30.381Z,73792.00
2019-04-06T08:47:30.424Z,72864.00
2019-04-06T08:48:30.457Z,73280.00
2019-04-06T08:49:30.422Z,74720.00
2019-04-06T08:50:30.355Z,76352.00
2019-04-06T08:51:30.321Z,77184.00
2019-04-06T08:52:30.313Z,78432.00
2019-04-06T08:53:30.338Z,78048.00
2019-04-06T08:54:30.301Z,78880.00
2019-04-06T08:55:30.288Z,78688.00
2019-04-06T08:56:30.280Z,79680.00
2019-04-06T08:57:30.449Z,78848.00
2019-04-06T08:58:30.252Z,77248.00
2019-04-06T08:59:30.405Z,79072.00
2019-04-06T09:00:30.239Z,77568.00
2019-04-06T09:01:30.241Z,78176.00
2019-04-06T09:02:30.212Z,77856.00
2019-04-06T09:03:30.209Z,78112.00
2019-04-06T09:04:30.195Z,79488.00
2019-04-06T09:05:30.214Z,78592.00
2019-04-06T09:06:30.183Z,79232.00
2019-04-06T09:07:30.293Z,80448.00
2019-04-06T09:08:30.161Z,80000.00
2019-04-06T09:09:30.146Z,79488.00
2019-04-06T09:10:30.155Z,78912.00
2019-04-06T09:11:30.127Z,79200.00
2019-04-06T09:12:30.185Z,81248.00
2019-04-06T09:13:30.109Z,81120.00
2019-04-06T09:14:30.101Z,82112.00
2019-04-06T09:15:30.114Z,81472.00
2019-04-06T09:16:30.077Z,79776.00
2019-04-06T09:17:30.087Z,80128.00
2019-04-06T09:18:30.063Z,79584.00
2019-04-06T09:19:30.050Z,81792.00
2019-04-06T09:20:30.089Z,82432.00
2019-04-06T09:21:30.045Z,82336.00
2019-04-06T09:22:30.016Z,83040.00
2019-04-06T09:23:30.263Z,82688.00
2019-04-06T09:24:30.123Z,82784.00
2019-04-06T09:25:30.249Z,81632.00
2019-04-06T09:26:30.009Z,82752.00
2019-04-06T09:27:29.970Z,84512.00
2019-04-06T09:28:29.975Z,84736.00
2019-04-06T09:29:29.947Z,82368.00
2019-04-06T09:30:29.934Z,79008.00
2019-04-06T09:31:29.950Z,80000.00
2019-04-06T09:32:29.927Z,78688.00
2019-04-06T09:33:29.903Z,81024.00
2019-04-06T09:34:31.162Z,81152.00
2019-04-06T09:35:29.886Z,84064.00
2019-04-06T09:36:29.910Z,84800.00
2019-04-06T09:37:30.079Z,83488.00
2019-04-06T09:38:29.871Z,82176.00
2019-04-06T09:39:29.857Z,82848.00
2019-04-06T09:40:30.293Z,85088.00
2019-04-06T09:41:29.830Z,87712.00
2019-04-06T09:42:29.836Z,89536.00
2019-04-06T09:43:29.824Z,90176.00
2019-04-06T09:44:29.801Z,89696.00
2019-04-06T09:45:29.952Z,92224.00
2019-04-06T09:46:29.788Z,92832.00
2019-04-06T09:47:29.789Z,93824.00
2019-04-06T09:48:29.771Z,96384.00
2019-04-06T09:49:29.761Z,90944.00
2019-04-06T09:50:29.967Z,91488.00
2019-04-06T09:51:29.746Z,87520.00
2019-04-06T09:52:29.949Z,91104.00
2019-04-06T09:53:29.727Z,95040.00
2019-04-06T09:54:29.715Z,96128.00
2019-04-06T09:55:29.700Z,95168.00
2019-04-06T09:56:29.694Z,95264.00
2019-04-06T09:57:29.680Z,94208.00
2019-04-06T09:58:29.826Z,93088.00
2019-04-06T09:59:36.044Z,92960.00
2019-04-06T10:00:30.724Z,92832.00
2019-04-06T10:01:38.025Z,93536.00
2019-04-06T10:02:30.631Z,96352.00
2019-04-06T10:03:29.720Z,96288.00
2019-04-06T10:04:29.619Z,96608.00
2019-04-06T10:05:29.797Z,98016.00
2019-04-06T10:06:32.120Z,93504.00
2019-04-06T10:07:29.581Z,95936.00
2019-04-06T10:08:29.624Z,94624.00
2019-04-06T10:09:29.589Z,97152.00
2019-04-06T10:10:29.577Z,93408.00
2019-04-06T10:11:29.654Z,97824.00
2019-04-06T10:12:29.542Z,96512.00
2019-04-06T10:13:29.753Z,99264.00
2019-04-06T10:14:29.559Z,98624.00
2019-04-06T10:15:29.517Z,98144.00
2019-04-06T10:16:29.496Z,96800.00
2019-04-06T10:17:29.493Z,98144.00
2019-04-06T10:18:29.485Z,96672.00
2019-04-06T10:19:29.487Z,97536.00
2019-04-06T10:20:29.639Z,97600.00
2019-04-06T10:21:29.475Z,98880.00
2019-04-06T10:22:29.525Z,101120.00
2019-04-06T10:23:29.448Z,101824.00
2019-04-06T10:24:29.635Z,101440.00
2019-04-06T10:25:29.408Z,102624.00
2019-04-06T10:26:29.588Z,101248.00
2019-04-06T10:27:29.528Z,100768.00
2019-04-06T10:28:29.394Z,98720.00
2019-04-06T10:29:29.412Z,99328.00
2019-04-06T10:30:29.368Z,99328.00
2019-04-06T10:31:29.473Z,99776.00
2019-04-06T10:32:29.352Z,97856.00
2019-04-06T10:33:29.336Z,100384.00
2019-04-06T10:34:29.323Z,97920.00
2019-04-06T10:35:29.346Z,100320.00
2019-04-06T10:36:31.408Z,99520.00
2019-04-06T10:37:29.318Z,100832.00
2019-04-06T10:38:29.378Z,99520.00
2019-04-06T10:39:29.285Z,101056.00
2019-04-06T10:40:29.526Z,98336.00
2019-04-06T10:41:29.264Z,96256.00
2019-04-06T10:42:29.620Z,97152.00
2019-04-06T10:43:29.392Z,96800.00
2019-04-06T10:44:29.233Z,99776.00
2019-04-06T10:45:29.275Z,101408.00
2019-04-06T10:46:29.299Z,99232.00
2019-04-06T10:47:29.197Z,98720.00
2019-04-06T10:48:29.262Z,98944.00
2019-04-06T10:49:29.184Z,101440.00
2019-04-06T10:50:29.172Z,101024.00
2019-04-06T10:51:29.410Z,99744.00
2019-04-06T10:52:29.148Z,96384.00
2019-04-06T10:53:29.442Z,94720.00
2019-04-06T10:54:29.138Z,96000.00
2019-04-06T10:55:29.272Z,97344.00
2019-04-06T10:56:29.132Z,101216.00
2019-04-06T10:57:29.098Z,102144.00
2019-04-06T10:58:29.093Z,104576.00
2019-04-06T10:59:29.078Z,100448.00
2019-04-06T11:00:29.069Z,99712.00
2019-04-06T11:01:29.084Z,98496.00
2019-04-06T11:02:29.132Z,97088.00
2019-04-06T11:03:29.049Z,96768.00
2019-04-06T11:04:29.044Z,96800.00
2019-04-06T11:05:29.019Z,96640.00
2019-04-06T11:06:29.030Z,98336.00
2019-04-06T11:07:29.096Z,100480.00
2019-04-06T11:08:28.999Z,98848.00
2019-04-06T11:09:29.292Z,103648.00
2019-04-06T11:10:28.976Z,104352.00
2019-04-06T11:11:28.999Z,104128.00
2019-04-06T11:12:28.958Z,99520.00
2019-04-06T11:13:28.953Z,91776.00
2019-04-06T11:14:28.971Z,88192.00
2019-04-06T11:15:28.931Z,87008.00
2019-04-06T11:16:29.215Z,93824.00
2019-04-06T11:17:29.127Z,100448.00
2019-04-06T11:18:28.902Z,106304.00
2019-04-06T11:19:28.964Z,104096.00
2019-04-06T11:20:28.881Z,107264.00
2019-04-06T11:21:28.876Z,107200.00
2019-04-06T11:22:28.939Z,107072.00
2019-04-06T11:23:28.852Z,108224.00
2019-04-06T11:24:28.840Z,108640.00
2019-04-06T11:25:28.858Z,108704.00
2019-04-06T11:26:28.830Z,109056.00
2019-04-06T11:27:28.868Z,108448.00
2019-04-06T11:28:28.812Z,106176.00
2019-04-06T11:29:28.788Z,106624.00
2019-04-06T11:30:29.065Z,104448.00
2019-04-06T11:31:28.841Z,107584.00
2019-04-06T11:32:28.781Z,104704.00
2019-04-06T11:33:28.992Z,105760.00
2019-04-06T11:34:28.752Z,101888.00
2019-04-06T11:35:28.742Z,98208.00
2019-04-06T11:36:28.729Z,100992.00
2019-04-06T11:37:28.904Z,99328.00
2019-04-06T11:38:28.821Z,102912.00
2019-04-06T11:39:28.738Z,106816.00
2019-04-06T11:40:28.693Z,105120.00
2019-04-06T11:41:28.786Z,103904.00
2019-04-06T11:42:28.678Z,102368.00
2019-04-06T11:43:28.683Z,100480.00
2019-04-06T11:44:28.847Z,102272.00
2019-04-06T11:45:28.642Z,102336.00
2019-04-06T11:46:28.791Z,100672.00
2019-04-06T11:47:28.805Z,100672.00
2019-04-06T11:48:28.668Z,99584.00
2019-04-06T11:49:28.601Z,99520.00
2019-04-06T11:50:28.595Z,96544.00
2019-04-06T11:51:28.799Z,94304.00
2019-04-06T11:52:28.573Z,95904.00
2019-04-06T11:53:28.576Z,96960.00
2019-04-06T11:54:28.575Z,98496.00
2019-04-06T11:55:28.547Z,99488.00
2019-04-06T11:56:28.533Z,102624.00
2019-04-06T11:57:28.572Z,101408.00
2019-04-06T11:58:28.521Z,105920.00
2019-04-06T11:59:28.528Z,104608.00
2019-04-06T12:00:28.502Z,102720.00
2019-04-06T12:01:28.844Z,104672.00
2019-04-06T12:02:28.476Z,101472.00
2019-04-06T12:03:28.469Z,100672.00
2019-04-06T12:04:28.476Z,99072.00
2019-04-06T12:05:28.453Z,98720.00
2019-04-06T12:06:28.443Z,97536.00
2019-04-06T12:07:28.439Z,97568.00
2019-04-06T12:08:28.425Z,98880.00
2019-04-06T12:09:28.442Z,103360.00
2019-04-06T12:10:28.414Z,105248.00
2019-04-06T12:11:28.401Z,103456.00
2019-04-06T12:12:28.384Z,100672.00
2019-04-06T12:13:28.368Z,99680.00
2019-04-06T12:14:28.381Z,101184.00
2019-04-06T12:15:29.780Z,100384.00
2019-04-06T12:16:28.341Z,103008.00